Nachusa, IL

4:16 PM CDT on October 24, 2014 (GMT -0500)
South Side | Change Station
CLOSE
Current Station
Personal Weather Station
Location: Dixon, IL
Elevation: 702 ft
Nearby Weather Stations

Elev 702 ft 41.84 °N, 89.49 °W | Updated 14 seconds ago

Clear
Clear
70.2 °F
Feels Like 77 °F
N
2.0
Wind Variable Wind from SW
Gusts 2.9 mph

Today
High -- | Low -- °F
--% Chance of Precip.
Yesterday
High -- | Low -- °F
Precip. -- in
7:20 AM 6:02 PM
New Moon, 1% visible
Pressure 29.96 in
Visibility 10.0 miles
Clouds Clear
Heat Index 77 °F
Dew Point 51 °F
Humidity 51%
Rainfall 0.00 in
Snow Depth Not available.
UV 2 out of 12
Pollen 1.40 out of 12
Air Quality Not available.
Flu Activity No Activity
METAR KSQI 242055Z AUTO 21005KT 10SM CLR 20/06 A2996 RMK AO1 57027

More Conditions Fewer Conditions

Pressure 29.96 in
Visibility 10.0 miles
Clouds Clear
Heat Index 77 °F
Dew Point 51 °F
Humidity 51%
Rainfall 0.00 in
Snow Depth Not available.
UV 2 out of 12
Pollen 1.40 out of 12
Air Quality Not available.
Flu Activity No Activity
METAR KSQI 242055Z AUTO 21005KT 10SM CLR 20/06 A2996 RMK AO1 57027

More Conditions Fewer Conditions

10-Day Weather Forecast

Almanac

Astronomy

Oct. 24, 2014 Rise Set
Actual Time 7:20 AM CDT 6:02 PM CDT
Civil Twilight 6:51 AM CDT 6:30 PM CDT
Nautical Twilight 6:19 AM CDT 7:03 PM CDT
Astronomical Twilight 5:46 AM CDT 7:35 PM CDT
Moon 7:59 AM CDT 6:41 PM CDT
Length of Visible Light 11h 39m
Length of Day
10h 42m
Tomorrow will be 2m 36s shorter.
New Moon, 1% of the Moon is Illuminated
Today
New Moon
Oct 30
First Quarter
Nov 6
Full
Nov 14
Last Quarter
Nov 22
New

Today's Extremes

State Highs State Lows

Community

WunderPhotos

Upload Photos

1,764,659 photos uploaded!

WunderBlogs® & News

By Dr. Jeff Masters
Director of Meteorology, Weather Underground
By Kari Strenfel
Meteorologist, Weather Underground
By Christopher C. Burt
Weather Historian, Weather Underground
October 24, 2014
October 24, 2014
October 24, 2014

Nearby

Snow Depth

Station Depth Elevation
No new snow has been reported.

Earthquake Activity

City Distance Mag. Time & Date
No recent earthquake activity has been reported nearby.
Minimum magnitude displayed is 2.5.

Coastal Water Temperatures

Place Temperature
No Stations Reporting

Nearby Weather Stations